Hauptseite
METAR-TAF:

METAR-TAF

Flughäfen :

Flugplatz Laupheim

Laupheim, Deutschland

Breite: 48-13N, Länge: 009-55E, Höhe: 538 m

Beobachtung

Neuester Wetterbericht von vor 26 Minuten, um 10:20 UTC
Wind 9 kt aus Ost
Temperatur 19°C
Luftfeuchtigkeit 43%
Luftdruck 1010 hPa
Sichtweite 10 km oder mehr
Leicht bewölkt in der Höhe von 14000 ft
Aufgelockert bewölkt in der Höhe von 30000 ft

METAR: ETHL 251020Z 08009KT 9999 FEW140 SCT300 19/06 Q1010 BLU+BLU+

Zeit: 12:46 (10:46 UTC)

Prognose

Neuester Wetterbericht von vor 31 Minuten, um 10:15 UTC
Gültige Prognose vom 25 um 11 UTC bis 25 um 20 UTC
Wind 10 kt aus Süd/Südwest, Böen bis zu 20 kt
Sichtweite 10 km oder mehr
Leicht bewölkt in der Höhe von 13000 ft
Durchbrochene Bewölkung in der Höhe von 30000 ft

TAF: ETHL 251015Z 2511/2520 20010G20KT 9999 NSW FEW130 BKN300

Wetterbeobachtungen und Prognosen von mehr als 4000 Flughäfen (METAR und TAF Bericht).

Die verfügbaren Stationen werden durch gelbe und rote Markierungen auf der Karte dargestellt.

Führen Sie die Maus auf sie, um den Namen der Station zu sehen.

Darauf klicken, um die Beobachtung von Wetterbeobachtungen und Prognosen zu sehen.

Um die Karte zu ändern : klicken Sie auf den grünen Tasten mit einem schwarzen Kreuz Zum Vergrößern, auf den grünen Button mit einem Gedankenstrich zu verkleinern, oder auf die grünen Pfeile für benachbarte Karten.


METAR-TAF: